sensor_id;sensor_type;location;lat;lon;timestamp;P1;durP1;ratioP1;P2;durP2;ratioP2
6483;SDS011;3275;52.376;9.694;2023-09-18T00:00:49;8.50;;;4.93;;
6483;SDS011;3275;52.376;9.694;2023-09-18T00:03:16;11.60;;;5.47;;
6483;SDS011;3275;52.376;9.694;2023-09-18T00:05:44;6.87;;;5.47;;
6483;SDS011;3275;52.376;9.694;2023-09-18T00:08:12;7.50;;;4.90;;
6483;SDS011;3275;52.376;9.694;2023-09-18T00:10:39;7.77;;;5.80;;
6483;SDS011;3275;52.376;9.694;2023-09-18T00:13:06;5.70;;;5.10;;
6483;SDS011;3275;52.376;9.694;2023-09-18T00:15:32;11.73;;;6.43;;
6483;SDS011;3275;52.376;9.694;2023-09-18T00:17:59;8.33;;;5.03;;
6483;SDS011;3275;52.376;9.694;2023-09-18T00:20:26;6.30;;;4.77;;
6483;SDS011;3275;52.376;9.694;2023-09-18T00:22:53;5.80;;;4.70;;
6483;SDS011;3275;52.376;9.694;2023-09-18T00:25:21;6.37;;;4.93;;
6483;SDS011;3275;52.376;9.694;2023-09-18T00:27:48;5.47;;;4.50;;
6483;SDS011;3275;52.376;9.694;2023-09-18T00:30:16;8.93;;;5.40;;
6483;SDS011;3275;52.376;9.694;2023-09-18T00:32:43;6.37;;;4.93;;
6483;SDS011;3275;52.376;9.694;2023-09-18T00:35:12;7.27;;;5.03;;
6483;SDS011;3275;52.376;9.694;2023-09-18T00:37:38;7.13;;;4.83;;
6483;SDS011;3275;52.376;9.694;2023-09-18T00:40:05;9.17;;;5.17;;
6483;SDS011;3275;52.376;9.694;2023-09-18T00:42:34;6.87;;;5.10;;
6483;SDS011;3275;52.376;9.694;2023-09-18T00:45:01;8.70;;;5.60;;
6483;SDS011;3275;52.376;9.694;2023-09-18T00:47:28;8.47;;;5.80;;
6483;SDS011;3275;52.376;9.694;2023-09-18T00:49:55;9.80;;;5.70;;
6483;SDS011;3275;52.376;9.694;2023-09-18T00:52:22;8.27;;;5.83;;
6483;SDS011;3275;52.376;9.694;2023-09-18T00:54:50;6.13;;;5.50;;
6483;SDS011;3275;52.376;9.694;2023-09-18T00:57:17;13.23;;;5.87;;
6483;SDS011;3275;52.376;9.694;2023-09-18T00:59:46;5.10;;;4.60;;
6483;SDS011;3275;52.376;9.694;2023-09-18T01:02:13;10.57;;;4.90;;
6483;SDS011;3275;52.376;9.694;2023-09-18T01:04:40;11.93;;;5.23;;
6483;SDS011;3275;52.376;9.694;2023-09-18T01:07:09;8.70;;;5.23;;
6483;SDS011;3275;52.376;9.694;2023-09-18T01:09:36;6.00;;;5.27;;
6483;SDS011;3275;52.376;9.694;2023-09-18T01:12:04;9.60;;;5.23;;
6483;SDS011;3275;52.376;9.694;2023-09-18T01:14:37;8.30;;;5.93;;
6483;SDS011;3275;52.376;9.694;2023-09-18T01:17:10;11.03;;;6.50;;
6483;SDS011;3275;52.376;9.694;2023-09-18T01:19:39;8.10;;;4.93;;
6483;SDS011;3275;52.376;9.694;2023-09-18T01:22:07;7.57;;;6.07;;
6483;SDS011;3275;52.376;9.694;2023-09-18T01:24:36;6.73;;;5.07;;
6483;SDS011;3275;52.376;9.694;2023-09-18T01:27:05;7.90;;;4.83;;
6483;SDS011;3275;52.376;9.694;2023-09-18T01:29:33;8.17;;;5.37;;
6483;SDS011;3275;52.376;9.694;2023-09-18T01:32:00;6.70;;;5.20;;
6483;SDS011;3275;52.376;9.694;2023-09-18T01:34:27;6.00;;;5.40;;
6483;SDS011;3275;52.376;9.694;2023-09-18T01:36:58;5.80;;;5.07;;
6483;SDS011;3275;52.376;9.694;2023-09-18T01:39:26;9.30;;;5.57;;
6483;SDS011;3275;52.376;9.694;2023-09-18T01:41:57;6.87;;;5.60;;
6483;SDS011;3275;52.376;9.694;2023-09-18T01:44:25;7.87;;;5.57;;
6483;SDS011;3275;52.376;9.694;2023-09-18T01:46:51;8.50;;;5.20;;
6483;SDS011;3275;52.376;9.694;2023-09-18T01:49:26;5.27;;;4.73;;
6483;SDS011;3275;52.376;9.694;2023-09-18T01:51:53;9.53;;;6.00;;
6483;SDS011;3275;52.376;9.694;2023-09-18T01:54:20;9.80;;;4.87;;
6483;SDS011;3275;52.376;9.694;2023-09-18T01:56:47;5.80;;;4.60;;
6483;SDS011;3275;52.376;9.694;2023-09-18T01:59:15;9.93;;;6.50;;
6483;SDS011;3275;52.376;9.694;2023-09-18T02:01:41;7.37;;;5.23;;
6483;SDS011;3275;52.376;9.694;2023-09-18T02:04:08;9.20;;;5.30;;
6483;SDS011;3275;52.376;9.694;2023-09-18T02:06:35;9.53;;;6.03;;
6483;SDS011;3275;52.376;9.694;2023-09-18T02:09:01;7.20;;;5.73;;
6483;SDS011;3275;52.376;9.694;2023-09-18T02:11:28;7.60;;;4.50;;
6483;SDS011;3275;52.376;9.694;2023-09-18T02:13:55;7.27;;;5.40;;
6483;SDS011;3275;52.376;9.694;2023-09-18T02:16:23;10.13;;;6.10;;
6483;SDS011;3275;52.376;9.694;2023-09-18T02:18:54;6.90;;;5.67;;
6483;SDS011;3275;52.376;9.694;2023-09-18T02:21:21;14.90;;;6.00;;
6483;SDS011;3275;52.376;9.694;2023-09-18T02:23:48;7.40;;;4.83;;
6483;SDS011;3275;52.376;9.694;2023-09-18T02:26:16;6.60;;;5.47;;
6483;SDS011;3275;52.376;9.694;2023-09-18T02:28:42;8.87;;;5.37;;
6483;SDS011;3275;52.376;9.694;2023-09-18T02:31:09;9.63;;;5.83;;
6483;SDS011;3275;52.376;9.694;2023-09-18T02:33:38;8.60;;;6.07;;
6483;SDS011;3275;52.376;9.694;2023-09-18T02:36:05;7.70;;;5.43;;
6483;SDS011;3275;52.376;9.694;2023-09-18T02:38:33;9.23;;;5.40;;
6483;SDS011;3275;52.376;9.694;2023-09-18T02:40:59;6.97;;;5.67;;
6483;SDS011;3275;52.376;9.694;2023-09-18T02:43:26;8.87;;;6.17;;
6483;SDS011;3275;52.376;9.694;2023-09-18T02:45:53;6.80;;;5.73;;
6483;SDS011;3275;52.376;9.694;2023-09-18T02:48:19;5.97;;;5.33;;
6483;SDS011;3275;52.376;9.694;2023-09-18T02:50:47;7.97;;;5.20;;
6483;SDS011;3275;52.376;9.694;2023-09-18T02:53:16;7.73;;;5.57;;
6483;SDS011;3275;52.376;9.694;2023-09-18T02:55:44;8.27;;;5.77;;
6483;SDS011;3275;52.376;9.694;2023-09-18T02:58:11;9.57;;;4.83;;
6483;SDS011;3275;52.376;9.694;2023-09-18T03:00:40;7.17;;;6.00;;
6483;SDS011;3275;52.376;9.694;2023-09-18T03:03:08;6.50;;;5.33;;
6483;SDS011;3275;52.376;9.694;2023-09-18T03:05:35;8.40;;;5.30;;
6483;SDS011;3275;52.376;9.694;2023-09-18T03:08:04;10.10;;;5.67;;
6483;SDS011;3275;52.376;9.694;2023-09-18T03:10:32;6.63;;;6.00;;
6483;SDS011;3275;52.376;9.694;2023-09-18T03:13:00;7.40;;;5.60;;
6483;SDS011;3275;52.376;9.694;2023-09-18T03:15:27;11.20;;;6.40;;
6483;SDS011;3275;52.376;9.694;2023-09-18T03:17:54;6.70;;;5.23;;
6483;SDS011;3275;52.376;9.694;2023-09-18T03:20:21;6.77;;;5.60;;
6483;SDS011;3275;52.376;9.694;2023-09-18T03:22:48;7.67;;;5.77;;
6483;SDS011;3275;52.376;9.694;2023-09-18T03:25:16;7.20;;;5.23;;
6483;SDS011;3275;52.376;9.694;2023-09-18T03:27:43;6.93;;;5.40;;
6483;SDS011;3275;52.376;9.694;2023-09-18T03:30:10;7.50;;;5.77;;
6483;SDS011;3275;52.376;9.694;2023-09-18T03:32:40;7.03;;;5.00;;
6483;SDS011;3275;52.376;9.694;2023-09-18T03:35:07;9.60;;;5.43;;
6483;SDS011;3275;52.376;9.694;2023-09-18T03:37:40;7.23;;;6.00;;
6483;SDS011;3275;52.376;9.694;2023-09-18T03:40:07;9.93;;;5.77;;
6483;SDS011;3275;52.376;9.694;2023-09-18T03:42:36;8.90;;;5.37;;
6483;SDS011;3275;52.376;9.694;2023-09-18T03:45:04;7.00;;;5.80;;
6483;SDS011;3275;52.376;9.694;2023-09-18T03:47:33;10.30;;;5.53;;
6483;SDS011;3275;52.376;9.694;2023-09-18T03:50:01;11.00;;;5.30;;
6483;SDS011;3275;52.376;9.694;2023-09-18T03:52:27;7.43;;;5.60;;
6483;SDS011;3275;52.376;9.694;2023-09-18T03:54:54;7.27;;;5.70;;
6483;SDS011;3275;52.376;9.694;2023-09-18T03:57:21;10.80;;;5.47;;
6483;SDS011;3275;52.376;9.694;2023-09-18T03:59:49;11.70;;;5.30;;
6483;SDS011;3275;52.376;9.694;2023-09-18T04:02:16;7.10;;;5.37;;
6483;SDS011;3275;52.376;9.694;2023-09-18T04:04:42;8.10;;;6.00;;
6483;SDS011;3275;52.376;9.694;2023-09-18T04:07:09;7.23;;;5.53;;
6483;SDS011;3275;52.376;9.694;2023-09-18T04:09:36;8.10;;;5.40;;
6483;SDS011;3275;52.376;9.694;2023-09-18T04:12:05;6.27;;;5.63;;
6483;SDS011;3275;52.376;9.694;2023-09-18T04:14:32;9.43;;;6.47;;
6483;SDS011;3275;52.376;9.694;2023-09-18T04:17:00;10.00;;;6.70;;
6483;SDS011;3275;52.376;9.694;2023-09-18T04:19:26;13.43;;;6.00;;
6483;SDS011;3275;52.376;9.694;2023-09-18T04:21:53;10.27;;;5.97;;
6483;SDS011;3275;52.376;9.694;2023-09-18T04:24:20;14.47;;;6.20;;
6483;SDS011;3275;52.376;9.694;2023-09-18T04:26:47;7.70;;;5.67;;
6483;SDS011;3275;52.376;9.694;2023-09-18T04:29:15;9.57;;;6.40;;
6483;SDS011;3275;52.376;9.694;2023-09-18T04:31:42;7.23;;;6.20;;
6483;SDS011;3275;52.376;9.694;2023-09-18T04:34:10;8.53;;;5.70;;
6483;SDS011;3275;52.376;9.694;2023-09-18T04:36:37;8.50;;;5.67;;
6483;SDS011;3275;52.376;9.694;2023-09-18T04:39:04;7.90;;;6.20;;
6483;SDS011;3275;52.376;9.694;2023-09-18T04:41:31;6.00;;;5.40;;
6483;SDS011;3275;52.376;9.694;2023-09-18T04:43:58;6.97;;;5.37;;
6483;SDS011;3275;52.376;9.694;2023-09-18T04:46:25;8.27;;;6.20;;
6483;SDS011;3275;52.376;9.694;2023-09-18T04:48:51;9.80;;;6.13;;
6483;SDS011;3275;52.376;9.694;2023-09-18T04:51:19;9.80;;;6.70;;
6483;SDS011;3275;52.376;9.694;2023-09-18T04:53:46;7.03;;;5.30;;
6483;SDS011;3275;52.376;9.694;2023-09-18T04:56:13;7.30;;;6.30;;
6483;SDS011;3275;52.376;9.694;2023-09-18T04:58:39;6.50;;;5.77;;
6483;SDS011;3275;52.376;9.694;2023-09-18T05:01:06;8.07;;;5.80;;
6483;SDS011;3275;52.376;9.694;2023-09-18T05:03:33;6.83;;;5.67;;
6483;SDS011;3275;52.376;9.694;2023-09-18T05:06:00;9.80;;;6.60;;
6483;SDS011;3275;52.376;9.694;2023-09-18T05:08:29;13.57;;;6.60;;
6483;SDS011;3275;52.376;9.694;2023-09-18T05:10:56;6.70;;;6.00;;
6483;SDS011;3275;52.376;9.694;2023-09-18T05:13:23;6.77;;;6.03;;
6483;SDS011;3275;52.376;9.694;2023-09-18T05:15:49;8.00;;;6.67;;
6483;SDS011;3275;52.376;9.694;2023-09-18T05:18:16;8.63;;;5.73;;
6483;SDS011;3275;52.376;9.694;2023-09-18T05:20:43;7.10;;;5.70;;
6483;SDS011;3275;52.376;9.694;2023-09-18T05:23:10;8.63;;;5.57;;
6483;SDS011;3275;52.376;9.694;2023-09-18T05:25:38;8.20;;;5.80;;
6483;SDS011;3275;52.376;9.694;2023-09-18T05:28:06;7.67;;;6.30;;
6483;SDS011;3275;52.376;9.694;2023-09-18T05:30:34;12.10;;;6.37;;
6483;SDS011;3275;52.376;9.694;2023-09-18T05:33:03;11.73;;;6.20;;
6483;SDS011;3275;52.376;9.694;2023-09-18T05:35:32;7.20;;;6.50;;
6483;SDS011;3275;52.376;9.694;2023-09-18T05:38:00;7.23;;;5.87;;
6483;SDS011;3275;52.376;9.694;2023-09-18T05:40:26;12.63;;;5.73;;
6483;SDS011;3275;52.376;9.694;2023-09-18T05:42:55;11.27;;;5.60;;
6483;SDS011;3275;52.376;9.694;2023-09-18T05:45:22;12.83;;;6.43;;
6483;SDS011;3275;52.376;9.694;2023-09-18T05:47:49;8.13;;;6.27;;
6483;SDS011;3275;52.376;9.694;2023-09-18T05:50:18;12.53;;;5.90;;
6483;SDS011;3275;52.376;9.694;2023-09-18T05:52:45;7.27;;;5.60;;
6483;SDS011;3275;52.376;9.694;2023-09-18T05:55:13;8.53;;;6.20;;
6483;SDS011;3275;52.376;9.694;2023-09-18T05:57:40;9.03;;;5.90;;
6483;SDS011;3275;52.376;9.694;2023-09-18T06:00:09;9.50;;;6.60;;
6483;SDS011;3275;52.376;9.694;2023-09-18T06:02:38;5.90;;;5.00;;
6483;SDS011;3275;52.376;9.694;2023-09-18T06:05:05;8.97;;;5.30;;
6483;SDS011;3275;52.376;9.694;2023-09-18T06:07:32;10.20;;;6.40;;
6483;SDS011;3275;52.376;9.694;2023-09-18T06:09:59;6.40;;;5.60;;
6483;SDS011;3275;52.376;9.694;2023-09-18T06:12:25;7.50;;;5.70;;
6483;SDS011;3275;52.376;9.694;2023-09-18T06:14:52;6.83;;;6.10;;
6483;SDS011;3275;52.376;9.694;2023-09-18T06:17:20;7.30;;;6.03;;
6483;SDS011;3275;52.376;9.694;2023-09-18T06:19:47;8.30;;;5.20;;
6483;SDS011;3275;52.376;9.694;2023-09-18T06:22:14;8.07;;;5.30;;
6483;SDS011;3275;52.376;9.694;2023-09-18T06:24:41;8.30;;;6.47;;
6483;SDS011;3275;52.376;9.694;2023-09-18T06:27:08;8.93;;;5.53;;
6483;SDS011;3275;52.376;9.694;2023-09-18T06:29:36;7.87;;;5.13;;
6483;SDS011;3275;52.376;9.694;2023-09-18T06:32:04;9.17;;;5.90;;
6483;SDS011;3275;52.376;9.694;2023-09-18T06:34:33;11.33;;;6.00;;
6483;SDS011;3275;52.376;9.694;2023-09-18T06:36:59;9.37;;;6.90;;
6483;SDS011;3275;52.376;9.694;2023-09-18T06:39:28;16.43;;;6.57;;
6483;SDS011;3275;52.376;9.694;2023-09-18T06:41:55;17.70;;;6.00;;
6483;SDS011;3275;52.376;9.694;2023-09-18T06:44:21;19.43;;;5.67;;
6483;SDS011;3275;52.376;9.694;2023-09-18T06:46:48;10.73;;;6.20;;
6483;SDS011;3275;52.376;9.694;2023-09-18T06:49:15;11.53;;;6.33;;
6483;SDS011;3275;52.376;9.694;2023-09-18T06:51:46;8.67;;;5.93;;
6483;SDS011;3275;52.376;9.694;2023-09-18T06:54:13;5.83;;;5.20;;
6483;SDS011;3275;52.376;9.694;2023-09-18T06:56:40;6.87;;;4.90;;
6483;SDS011;3275;52.376;9.694;2023-09-18T06:59:09;16.53;;;5.00;;
6483;SDS011;3275;52.376;9.694;2023-09-18T07:01:36;7.40;;;5.77;;
6483;SDS011;3275;52.376;9.694;2023-09-18T07:04:03;6.80;;;5.37;;
6483;SDS011;3275;52.376;9.694;2023-09-18T07:06:30;5.97;;;5.30;;
6483;SDS011;3275;52.376;9.694;2023-09-18T07:08:58;8.67;;;4.80;;
6483;SDS011;3275;52.376;9.694;2023-09-18T07:11:25;5.50;;;4.83;;
6483;SDS011;3275;52.376;9.694;2023-09-18T07:13:52;7.40;;;5.20;;
6483;SDS011;3275;52.376;9.694;2023-09-18T07:16:19;10.07;;;5.30;;
6483;SDS011;3275;52.376;9.694;2023-09-18T07:18:46;10.83;;;4.90;;
6483;SDS011;3275;52.376;9.694;2023-09-18T07:21:12;6.13;;;4.90;;
6483;SDS011;3275;52.376;9.694;2023-09-18T07:23:39;6.43;;;5.33;;
6483;SDS011;3275;52.376;9.694;2023-09-18T07:26:07;6.73;;;4.80;;
6483;SDS011;3275;52.376;9.694;2023-09-18T07:28:34;6.67;;;4.27;;
6483;SDS011;3275;52.376;9.694;2023-09-18T07:31:05;10.93;;;4.83;;
6483;SDS011;3275;52.376;9.694;2023-09-18T07:33:32;6.80;;;4.97;;
6483;SDS011;3275;52.376;9.694;2023-09-18T07:35:59;7.97;;;4.63;;
6483;SDS011;3275;52.376;9.694;2023-09-18T07:38:25;6.13;;;4.63;;
6483;SDS011;3275;52.376;9.694;2023-09-18T07:40:53;5.53;;;4.33;;
6483;SDS011;3275;52.376;9.694;2023-09-18T07:43:21;5.47;;;4.33;;
6483;SDS011;3275;52.376;9.694;2023-09-18T07:45:48;4.87;;;4.47;;
6483;SDS011;3275;52.376;9.694;2023-09-18T07:48:17;7.00;;;5.27;;
6483;SDS011;3275;52.376;9.694;2023-09-18T07:50:44;6.33;;;4.50;;
6483;SDS011;3275;52.376;9.694;2023-09-18T07:53:14;7.33;;;5.13;;
6483;SDS011;3275;52.376;9.694;2023-09-18T07:55:41;5.90;;;4.50;;
6483;SDS011;3275;52.376;9.694;2023-09-18T07:58:08;6.07;;;4.90;;
6483;SDS011;3275;52.376;9.694;2023-09-18T08:00:36;7.17;;;4.50;;
6483;SDS011;3275;52.376;9.694;2023-09-18T08:03:03;7.27;;;5.20;;
6483;SDS011;3275;52.376;9.694;2023-09-18T08:05:30;4.90;;;4.37;;
6483;SDS011;3275;52.376;9.694;2023-09-18T08:07:56;8.50;;;5.07;;
6483;SDS011;3275;52.376;9.694;2023-09-18T08:10:24;11.87;;;4.70;;
6483;SDS011;3275;52.376;9.694;2023-09-18T08:12:51;7.23;;;4.70;;
6483;SDS011;3275;52.376;9.694;2023-09-18T08:15:18;5.30;;;4.43;;
6483;SDS011;3275;52.376;9.694;2023-09-18T08:17:47;7.50;;;5.37;;
6483;SDS011;3275;52.376;9.694;2023-09-18T08:20:14;8.30;;;4.13;;
6483;SDS011;3275;52.376;9.694;2023-09-18T08:22:41;6.13;;;5.30;;
6483;SDS011;3275;52.376;9.694;2023-09-18T08:25:08;8.63;;;4.43;;
6483;SDS011;3275;52.376;9.694;2023-09-18T08:27:36;6.80;;;4.33;;
6483;SDS011;3275;52.376;9.694;2023-09-18T08:30:05;10.20;;;4.67;;
6483;SDS011;3275;52.376;9.694;2023-09-18T08:32:33;9.33;;;4.33;;
6483;SDS011;3275;52.376;9.694;2023-09-18T08:35:02;6.00;;;3.40;;
6483;SDS011;3275;52.376;9.694;2023-09-18T08:37:29;7.87;;;4.00;;
6483;SDS011;3275;52.376;9.694;2023-09-18T08:39:55;12.60;;;4.47;;
6483;SDS011;3275;52.376;9.694;2023-09-18T08:42:23;7.67;;;4.00;;
6483;SDS011;3275;52.376;9.694;2023-09-18T08:44:51;8.30;;;3.77;;
6483;SDS011;3275;52.376;9.694;2023-09-18T08:47:19;11.13;;;3.60;;
6483;SDS011;3275;52.376;9.694;2023-09-18T08:49:48;14.33;;;4.40;;
6483;SDS011;3275;52.376;9.694;2023-09-18T08:52:16;8.80;;;3.70;;
6483;SDS011;3275;52.376;9.694;2023-09-18T08:54:44;7.97;;;4.47;;
6483;SDS011;3275;52.376;9.694;2023-09-18T08:57:11;11.20;;;4.60;;
6483;SDS011;3275;52.376;9.694;2023-09-18T08:59:38;7.67;;;4.03;;
6483;SDS011;3275;52.376;9.694;2023-09-18T09:02:07;7.43;;;3.97;;
6483;SDS011;3275;52.376;9.694;2023-09-18T09:04:36;8.57;;;3.87;;
6483;SDS011;3275;52.376;9.694;2023-09-18T09:07:03;11.03;;;3.80;;
6483;SDS011;3275;52.376;9.694;2023-09-18T09:09:32;5.47;;;3.30;;
6483;SDS011;3275;52.376;9.694;2023-09-18T09:11:59;9.90;;;4.27;;
6483;SDS011;3275;52.376;9.694;2023-09-18T09:14:26;8.33;;;3.87;;
6483;SDS011;3275;52.376;9.694;2023-09-18T09:16:54;8.73;;;3.30;;
6483;SDS011;3275;52.376;9.694;2023-09-18T09:19:27;5.20;;;3.50;;
6483;SDS011;3275;52.376;9.694;2023-09-18T09:21:56;8.03;;;3.20;;
6483;SDS011;3275;52.376;9.694;2023-09-18T09:24:36;11.70;;;4.17;;
6483;SDS011;3275;52.376;9.694;2023-09-18T09:27:04;11.27;;;3.87;;
6483;SDS011;3275;52.376;9.694;2023-09-18T09:29:31;11.30;;;3.70;;
6483;SDS011;3275;52.376;9.694;2023-09-18T09:32:03;16.10;;;4.73;;
6483;SDS011;3275;52.376;9.694;2023-09-18T09:34:38;10.43;;;4.00;;
6483;SDS011;3275;52.376;9.694;2023-09-18T09:37:06;8.60;;;3.80;;
6483;SDS011;3275;52.376;9.694;2023-09-18T09:39:33;6.60;;;3.33;;
6483;SDS011;3275;52.376;9.694;2023-09-18T09:42:02;8.57;;;3.40;;
6483;SDS011;3275;52.376;9.694;2023-09-18T09:44:31;8.87;;;3.17;;
6483;SDS011;3275;52.376;9.694;2023-09-18T09:46:58;9.47;;;3.80;;
6483;SDS011;3275;52.376;9.694;2023-09-18T09:49:26;7.90;;;3.50;;
6483;SDS011;3275;52.376;9.694;2023-09-18T09:51:58;9.70;;;3.30;;
6483;SDS011;3275;52.376;9.694;2023-09-18T09:54:31;9.77;;;2.87;;
6483;SDS011;3275;52.376;9.694;2023-09-18T09:57:03;5.20;;;2.87;;
6483;SDS011;3275;52.376;9.694;2023-09-18T09:59:30;10.50;;;3.17;;
6483;SDS011;3275;52.376;9.694;2023-09-18T10:01:58;6.80;;;2.73;;
6483;SDS011;3275;52.376;9.694;2023-09-18T10:04:25;15.57;;;3.27;;
6483;SDS011;3275;52.376;9.694;2023-09-18T10:06:56;13.53;;;3.07;;
6483;SDS011;3275;52.376;9.694;2023-09-18T10:09:32;12.40;;;3.30;;
6483;SDS011;3275;52.376;9.694;2023-09-18T10:12:03;8.23;;;3.40;;
6483;SDS011;3275;52.376;9.694;2023-09-18T10:14:34;10.20;;;3.50;;
6483;SDS011;3275;52.376;9.694;2023-09-18T10:17:04;10.20;;;3.40;;
6483;SDS011;3275;52.376;9.694;2023-09-18T10:19:39;9.27;;;3.40;;
6483;SDS011;3275;52.376;9.694;2023-09-18T10:22:11;6.00;;;3.33;;
6483;SDS011;3275;52.376;9.694;2023-09-18T10:24:45;8.43;;;4.17;;
6483;SDS011;3275;52.376;9.694;2023-09-18T10:27:15;9.73;;;3.00;;
6483;SDS011;3275;52.376;9.694;2023-09-18T10:29:47;4.83;;;2.90;;
6483;SDS011;3275;52.376;9.694;2023-09-18T10:32:16;8.93;;;3.33;;
6483;SDS011;3275;52.376;9.694;2023-09-18T10:34:45;7.63;;;2.73;;
6483;SDS011;3275;52.376;9.694;2023-09-18T10:37:14;6.17;;;2.80;;
6483;SDS011;3275;52.376;9.694;2023-09-18T10:39:41;7.43;;;2.97;;
6483;SDS011;3275;52.376;9.694;2023-09-18T10:42:10;11.33;;;3.77;;
6483;SDS011;3275;52.376;9.694;2023-09-18T10:44:39;11.10;;;3.60;;
6483;SDS011;3275;52.376;9.694;2023-09-18T10:47:07;7.47;;;2.90;;
6483;SDS011;3275;52.376;9.694;2023-09-18T10:49:37;8.70;;;2.90;;
6483;SDS011;3275;52.376;9.694;2023-09-18T10:52:04;9.20;;;3.20;;
6483;SDS011;3275;52.376;9.694;2023-09-18T10:54:31;12.53;;;3.60;;
6483;SDS011;3275;52.376;9.694;2023-09-18T10:56:59;7.87;;;2.87;;
6483;SDS011;3275;52.376;9.694;2023-09-18T10:59:27;8.23;;;3.70;;
6483;SDS011;3275;52.376;9.694;2023-09-18T11:01:55;9.33;;;3.10;;
6483;SDS011;3275;52.376;9.694;2023-09-18T11:04:23;5.07;;;2.77;;
6483;SDS011;3275;52.376;9.694;2023-09-18T11:07:02;4.77;;;2.17;;
6483;SDS011;3275;52.376;9.694;2023-09-18T11:09:41;5.73;;;2.80;;
6483;SDS011;3275;52.376;9.694;2023-09-18T11:12:09;7.50;;;2.77;;
6483;SDS011;3275;52.376;9.694;2023-09-18T11:14:43;7.83;;;3.20;;
6483;SDS011;3275;52.376;9.694;2023-09-18T11:20:05;8.70;;;2.87;;
6483;SDS011;3275;52.376;9.694;2023-09-18T11:22:37;9.33;;;3.40;;
6483;SDS011;3275;52.376;9.694;2023-09-18T11:28:03;7.80;;;2.57;;
6483;SDS011;3275;52.376;9.694;2023-09-18T11:30:32;10.87;;;2.43;;
6483;SDS011;3275;52.376;9.694;2023-09-18T11:33:02;5.27;;;2.40;;
6483;SDS011;3275;52.376;9.694;2023-09-18T11:35:29;7.43;;;2.53;;
6483;SDS011;3275;52.376;9.694;2023-09-18T11:38:02;8.63;;;2.50;;
6483;SDS011;3275;52.376;9.694;2023-09-18T11:40:31;8.20;;;2.27;;
6483;SDS011;3275;52.376;9.694;2023-09-18T11:45:55;8.40;;;2.47;;
6483;SDS011;3275;52.376;9.694;2023-09-18T11:48:26;8.93;;;2.67;;
6483;SDS011;3275;52.376;9.694;2023-09-18T11:50:54;3.00;;;2.57;;
6483;SDS011;3275;52.376;9.694;2023-09-18T11:53:23;7.30;;;2.67;;
6483;SDS011;3275;52.376;9.694;2023-09-18T11:55:50;5.37;;;2.00;;
6483;SDS011;3275;52.376;9.694;2023-09-18T11:58:17;8.40;;;2.40;;
6483;SDS011;3275;52.376;9.694;2023-09-18T12:00:48;4.17;;;2.73;;
6483;SDS011;3275;52.376;9.694;2023-09-18T12:03:16;5.77;;;2.77;;
6483;SDS011;3275;52.376;9.694;2023-09-18T12:05:51;7.67;;;2.50;;
6483;SDS011;3275;52.376;9.694;2023-09-18T12:08:19;5.17;;;2.50;;
6483;SDS011;3275;52.376;9.694;2023-09-18T12:10:49;11.47;;;3.63;;
6483;SDS011;3275;52.376;9.694;2023-09-18T12:13:17;8.63;;;2.20;;
6483;SDS011;3275;52.376;9.694;2023-09-18T12:15:44;4.13;;;1.90;;
6483;SDS011;3275;52.376;9.694;2023-09-18T12:18:10;5.70;;;2.20;;
6483;SDS011;3275;52.376;9.694;2023-09-18T12:20:44;3.40;;;1.90;;
6483;SDS011;3275;52.376;9.694;2023-09-18T12:23:12;5.40;;;1.53;;
6483;SDS011;3275;52.376;9.694;2023-09-18T12:25:39;3.70;;;1.90;;
6483;SDS011;3275;52.376;9.694;2023-09-18T12:28:06;4.10;;;1.67;;
6483;SDS011;3275;52.376;9.694;2023-09-18T12:30:34;3.60;;;1.60;;
6483;SDS011;3275;52.376;9.694;2023-09-18T12:33:00;6.40;;;1.40;;
6483;SDS011;3275;52.376;9.694;2023-09-18T12:35:28;5.93;;;1.70;;
6483;SDS011;3275;52.376;9.694;2023-09-18T12:37:56;2.40;;;1.50;;
6483;SDS011;3275;52.376;9.694;2023-09-18T12:40:25;4.43;;;1.53;;
6483;SDS011;3275;52.376;9.694;2023-09-18T12:42:53;3.53;;;1.53;;
6483;SDS011;3275;52.376;9.694;2023-09-18T12:45:21;4.40;;;1.77;;
6483;SDS011;3275;52.376;9.694;2023-09-18T12:47:49;3.17;;;1.37;;
6483;SDS011;3275;52.376;9.694;2023-09-18T12:50:17;8.50;;;1.70;;
6483;SDS011;3275;52.376;9.694;2023-09-18T12:52:43;7.40;;;2.10;;
6483;SDS011;3275;52.376;9.694;2023-09-18T12:55:20;2.30;;;1.70;;
6483;SDS011;3275;52.376;9.694;2023-09-18T12:57:50;3.43;;;1.40;;
6483;SDS011;3275;52.376;9.694;2023-09-18T13:00:17;4.93;;;1.83;;
6483;SDS011;3275;52.376;9.694;2023-09-18T13:02:47;3.70;;;1.37;;
6483;SDS011;3275;52.376;9.694;2023-09-18T13:05:19;2.70;;;1.50;;
6483;SDS011;3275;52.376;9.694;2023-09-18T13:07:46;5.30;;;1.60;;
6483;SDS011;3275;52.376;9.694;2023-09-18T13:10:15;1.73;;;1.23;;
6483;SDS011;3275;52.376;9.694;2023-09-18T13:12:47;5.53;;;1.37;;
6483;SDS011;3275;52.376;9.694;2023-09-18T13:15:24;3.57;;;1.60;;
6483;SDS011;3275;52.376;9.694;2023-09-18T13:17:52;5.80;;;1.60;;
6483;SDS011;3275;52.376;9.694;2023-09-18T13:20:20;4.80;;;2.10;;
6483;SDS011;3275;52.376;9.694;2023-09-18T13:22:50;3.00;;;1.40;;
6483;SDS011;3275;52.376;9.694;2023-09-18T13:25:21;2.30;;;1.13;;
6483;SDS011;3275;52.376;9.694;2023-09-18T13:27:50;3.73;;;1.50;;
6483;SDS011;3275;52.376;9.694;2023-09-18T13:30:18;2.50;;;1.33;;
6483;SDS011;3275;52.376;9.694;2023-09-18T13:32:47;6.83;;;1.77;;
6483;SDS011;3275;52.376;9.694;2023-09-18T13:35:14;7.70;;;4.27;;
6483;SDS011;3275;52.376;9.694;2023-09-18T13:37:41;2.80;;;1.70;;
6483;SDS011;3275;52.376;9.694;2023-09-18T13:40:09;7.17;;;1.90;;
6483;SDS011;3275;52.376;9.694;2023-09-18T13:42:36;10.00;;;1.80;;
6483;SDS011;3275;52.376;9.694;2023-09-18T13:45:07;6.90;;;2.33;;
6483;SDS011;3275;52.376;9.694;2023-09-18T13:47:35;3.03;;;1.43;;
6483;SDS011;3275;52.376;9.694;2023-09-18T13:50:03;5.20;;;2.00;;
6483;SDS011;3275;52.376;9.694;2023-09-18T13:52:32;5.60;;;1.53;;
6483;SDS011;3275;52.376;9.694;2023-09-18T13:55:00;6.07;;;1.50;;
6483;SDS011;3275;52.376;9.694;2023-09-18T13:57:30;4.40;;;1.63;;
6483;SDS011;3275;52.376;9.694;2023-09-18T13:59:57;2.70;;;1.50;;
6483;SDS011;3275;52.376;9.694;2023-09-18T14:02:26;4.60;;;1.50;;
6483;SDS011;3275;52.376;9.694;2023-09-18T14:04:53;2.00;;;1.40;;
6483;SDS011;3275;52.376;9.694;2023-09-18T14:07:20;6.13;;;3.00;;
6483;SDS011;3275;52.376;9.694;2023-09-18T14:09:47;5.70;;;1.80;;
6483;SDS011;3275;52.376;9.694;2023-09-18T14:12:14;9.03;;;2.90;;
6483;SDS011;3275;52.376;9.694;2023-09-18T14:14:41;6.07;;;2.33;;
6483;SDS011;3275;52.376;9.694;2023-09-18T14:17:08;4.83;;;1.90;;
6483;SDS011;3275;52.376;9.694;2023-09-18T14:19:36;3.30;;;1.83;;
6483;SDS011;3275;52.376;9.694;2023-09-18T14:22:04;4.70;;;2.40;;
6483;SDS011;3275;52.376;9.694;2023-09-18T14:24:31;5.50;;;2.23;;
6483;SDS011;3275;52.376;9.694;2023-09-18T14:26:59;3.77;;;1.93;;
6483;SDS011;3275;52.376;9.694;2023-09-18T14:29:26;7.50;;;2.60;;
6483;SDS011;3275;52.376;9.694;2023-09-18T14:31:53;4.43;;;1.70;;
6483;SDS011;3275;52.376;9.694;2023-09-18T14:34:19;9.17;;;2.83;;
6483;SDS011;3275;52.376;9.694;2023-09-18T14:36:47;3.10;;;1.50;;
6483;SDS011;3275;52.376;9.694;2023-09-18T14:39:14;5.63;;;2.87;;
6483;SDS011;3275;52.376;9.694;2023-09-18T14:41:41;9.30;;;2.13;;
6483;SDS011;3275;52.376;9.694;2023-09-18T14:44:08;5.93;;;2.10;;
6483;SDS011;3275;52.376;9.694;2023-09-18T14:46:35;5.30;;;2.03;;
6483;SDS011;3275;52.376;9.694;2023-09-18T14:49:03;2.03;;;1.67;;
6483;SDS011;3275;52.376;9.694;2023-09-18T14:51:30;4.23;;;2.20;;
6483;SDS011;3275;52.376;9.694;2023-09-18T14:53:58;5.43;;;1.97;;
6483;SDS011;3275;52.376;9.694;2023-09-18T14:56:25;8.70;;;2.27;;
6483;SDS011;3275;52.376;9.694;2023-09-18T14:58:52;3.53;;;1.57;;
6483;SDS011;3275;52.376;9.694;2023-09-18T15:01:20;3.83;;;2.00;;
6483;SDS011;3275;52.376;9.694;2023-09-18T15:03:47;3.93;;;2.03;;
6483;SDS011;3275;52.376;9.694;2023-09-18T15:06:14;3.67;;;1.47;;
6483;SDS011;3275;52.376;9.694;2023-09-18T15:08:41;2.53;;;1.77;;
6483;SDS011;3275;52.376;9.694;2023-09-18T15:11:09;5.90;;;1.80;;
6483;SDS011;3275;52.376;9.694;2023-09-18T15:13:36;5.40;;;1.63;;
6483;SDS011;3275;52.376;9.694;2023-09-18T15:16:03;7.47;;;1.73;;
6483;SDS011;3275;52.376;9.694;2023-09-18T15:18:30;2.13;;;1.60;;
6483;SDS011;3275;52.376;9.694;2023-09-18T15:20:57;4.20;;;1.63;;
6483;SDS011;3275;52.376;9.694;2023-09-18T15:23:24;9.23;;;2.63;;
6483;SDS011;3275;52.376;9.694;2023-09-18T15:25:51;4.57;;;2.10;;